Time;durP1;ratioP1;P1;durP2;ratioP2;P2;SDS_P1;SDS_P2;PMS_P1;PMS_P2;Temp;Humidity;BMP_temperature;BMP_pressure;BME280_temperature;BME280_humidity;BME280_pressure;Samples;Min_cycle;Max_cycle;Signal;HPM_P1;HPM_P2
2021/09/19 00:02:48;;;;;;;21.17;8.20;;;;;;;;;;10566759;28;20043;-72
2021/09/19 00:07:51;;;;;;;21.50;9.13;;;;;;;;;;10557846;28;20146;-72
2021/09/19 00:12:55;;;;;;;16.33;7.80;;;;;;;;;;10557727;28;20069;-73
2021/09/19 00:17:58;;;;;;;20.83;9.57;;;;;;;;;;10568125;28;20063;-71
2021/09/19 00:23:01;;;;;;;21.30;9.10;;;;;;;;;;10563205;28;20468;-71
2021/09/19 00:28:05;;;;;;;25.17;10.13;;;;;;;;;;10567548;28;20108;-72
2021/09/19 00:33:08;;;;;;;26.55;11.20;;;;;;;;;;10565048;28;20076;-72
2021/09/19 00:38:11;;;;;;;23.90;9.68;;;;;;;;;;10563069;28;20108;-72
2021/09/19 00:43:15;;;;;;;23.05;9.90;;;;;;;;;;10566222;28;20054;-71
2021/09/19 00:48:18;;;;;;;22.23;9.05;;;;;;;;;;10566970;28;20051;-71
2021/09/19 00:53:21;;;;;;;22.08;9.82;;;;;;;;;;10566351;28;20075;-72
2021/09/19 00:58:25;;;;;;;22.42;10.07;;;;;;;;;;10556896;28;20043;-71
2021/09/19 01:03:28;;;;;;;21.50;9.77;;;;;;;;;;10565817;28;20040;-71
2021/09/19 01:08:32;;;;;;;23.00;10.15;;;;;;;;;;10557457;28;20456;-73
2021/09/19 01:13:42;;;;;;;25.52;10.85;;;;;;;;;;10564093;28;20493;-71
2021/09/19 01:18:46;;;;;;;27.10;11.82;;;;;;;;;;10565515;28;20057;-73
2021/09/19 01:24:06;;;;;;;27.63;11.20;;;;;;;;;;10565875;28;20040;-72
2021/09/19 01:29:16;;;;;;;31.00;12.35;;;;;;;;;;10566997;28;21236;-71
2021/09/19 01:34:18;;;;;;;28.88;11.95;;;;;;;;;;10558488;28;20086;-71
2021/09/19 01:39:23;;;;;;;30.88;11.45;;;;;;;;;;10555339;28;20080;-71
2021/09/19 01:44:26;;;;;;;29.92;11.25;;;;;;;;;;10565902;28;20100;-73
2021/09/19 01:49:29;;;;;;;32.35;12.63;;;;;;;;;;10563164;28;20124;-72
2021/09/19 01:54:34;;;;;;;33.72;13.55;;;;;;;;;;10571664;28;20043;-72
2021/09/19 01:59:37;;;;;;;30.65;12.60;;;;;;;;;;10568707;28;20120;-70
2021/09/19 02:04:40;;;;;;;38.40;14.13;;;;;;;;;;10570435;28;20096;-71
2021/09/19 02:09:44;;;;;;;37.35;15.27;;;;;;;;;;10570478;28;20490;-72
2021/09/19 02:14:47;;;;;;;37.92;14.60;;;;;;;;;;10568890;28;20047;-72
2021/09/19 02:19:50;;;;;;;35.88;13.98;;;;;;;;;;10569743;28;20214;-72
2021/09/19 02:24:54;;;;;;;37.17;14.85;;;;;;;;;;10566812;28;20040;-71
2021/09/19 02:29:57;;;;;;;39.22;14.63;;;;;;;;;;10570224;28;20170;-71
2021/09/19 02:35:00;;;;;;;37.63;14.15;;;;;;;;;;10569906;28;20078;-72
2021/09/19 02:40:05;;;;;;;38.20;14.30;;;;;;;;;;10563326;28;20419;-72
2021/09/19 02:45:09;;;;;;;35.60;14.00;;;;;;;;;;10569644;28;20471;-72
2021/09/19 02:50:12;;;;;;;37.47;14.60;;;;;;;;;;10572287;28;20119;-71
2021/09/19 02:55:17;;;;;;;40.33;14.73;;;;;;;;;;10566865;28;20514;-72
2021/09/19 03:00:21;;;;;;;40.08;13.43;;;;;;;;;;10569641;28;20423;-69
2021/09/19 03:05:24;;;;;;;30.90;13.20;;;;;;;;;;10568381;28;20482;-71
2021/09/19 03:10:28;;;;;;;29.45;12.88;;;;;;;;;;10563904;28;20083;-71
2021/09/19 03:15:31;;;;;;;29.55;12.65;;;;;;;;;;10565814;28;20077;-70
2021/09/19 03:20:34;;;;;;;32.57;12.03;;;;;;;;;;10568798;28;20040;-71
2021/09/19 03:25:38;;;;;;;29.17;11.70;;;;;;;;;;10563906;28;20059;-71
2021/09/19 03:30:41;;;;;;;29.00;11.55;;;;;;;;;;10566620;28;20507;-72
2021/09/19 03:35:44;;;;;;;30.38;11.82;;;;;;;;;;10561929;28;20043;-71
2021/09/19 03:40:48;;;;;;;27.60;11.37;;;;;;;;;;10567520;28;20044;-71
2021/09/19 03:45:51;;;;;;;25.08;10.50;;;;;;;;;;10565952;28;20071;-71
2021/09/19 03:50:54;;;;;;;26.05;11.27;;;;;;;;;;10561177;28;20059;-70
2021/09/19 03:55:58;;;;;;;22.87;10.03;;;;;;;;;;10555275;28;20051;-70
2021/09/19 04:01:01;;;;;;;24.98;10.80;;;;;;;;;;10565222;28;20572;-70
2021/09/19 04:06:04;;;;;;;23.80;9.57;;;;;;;;;;10561203;28;20048;-71
2021/09/19 04:11:08;;;;;;;30.05;11.77;;;;;;;;;;10565294;28;20048;-72
2021/09/19 04:16:11;;;;;;;28.85;11.68;;;;;;;;;;10564536;28;20578;-71
2021/09/19 04:21:15;;;;;;;30.60;11.18;;;;;;;;;;10567661;28;20043;-72
2021/09/19 04:26:19;;;;;;;26.50;11.38;;;;;;;;;;10561596;28;20066;-71
2021/09/19 04:31:22;;;;;;;30.33;11.50;;;;;;;;;;10562202;28;20262;-71
2021/09/19 04:36:25;;;;;;;27.90;12.18;;;;;;;;;;10561684;28;20043;-71
2021/09/19 04:41:29;;;;;;;30.73;12.65;;;;;;;;;;10567067;28;20035;-71
2021/09/19 04:46:32;;;;;;;29.13;11.80;;;;;;;;;;10565526;28;20083;-72
2021/09/19 04:51:35;;;;;;;27.83;12.43;;;;;;;;;;10561993;28;20051;-72
2021/09/19 04:56:39;;;;;;;28.65;11.77;;;;;;;;;;10552612;28;20143;-72
2021/09/19 05:01:42;;;;;;;32.63;11.50;;;;;;;;;;10562657;28;20035;-71
2021/09/19 05:06:45;;;;;;;30.07;13.10;;;;;;;;;;10557189;28;20169;-71
2021/09/19 05:11:49;;;;;;;29.48;11.65;;;;;;;;;;10566351;28;20139;-71
2021/09/19 05:16:52;;;;;;;28.58;11.45;;;;;;;;;;10564482;28;20317;-70
2021/09/19 05:21:55;;;;;;;27.30;11.50;;;;;;;;;;10561529;28;20077;-71
2021/09/19 05:27:00;;;;;;;28.58;12.23;;;;;;;;;;10570302;27;20047;-70
2021/09/19 05:32:03;;;;;;;24.90;11.23;;;;;;;;;;10574441;28;20553;-71
2021/09/19 05:37:06;;;;;;;24.60;10.80;;;;;;;;;;10569118;28;20073;-71
2021/09/19 05:42:10;;;;;;;23.58;10.52;;;;;;;;;;10569616;28;20455;-71
2021/09/19 05:47:13;;;;;;;22.10;9.07;;;;;;;;;;10561106;28;20046;-74
2021/09/19 05:52:17;;;;;;;23.27;10.23;;;;;;;;;;10569813;28;20543;-72
2021/09/19 05:57:21;;;;;;;23.60;10.38;;;;;;;;;;10564326;28;20119;-71
2021/09/19 06:02:24;;;;;;;21.33;9.57;;;;;;;;;;10572803;28;20486;-70
2021/09/19 06:07:27;;;;;;;20.97;9.57;;;;;;;;;;10566026;28;20054;-69
2021/09/19 06:12:31;;;;;;;22.03;10.97;;;;;;;;;;10568826;28;20063;-70
2021/09/19 06:17:35;;;;;;;18.23;8.57;;;;;;;;;;10567087;28;20511;-71
2021/09/19 06:22:38;;;;;;;19.45;8.35;;;;;;;;;;10558113;28;20036;-71
2021/09/19 06:27:43;;;;;;;15.95;8.20;;;;;;;;;;10563713;28;20042;-70
2021/09/19 06:32:45;;;;;;;16.38;7.95;;;;;;;;;;10565689;28;20399;-71
2021/09/19 06:37:48;;;;;;;16.00;8.43;;;;;;;;;;10568256;28;20105;-73
2021/09/19 06:42:52;;;;;;;16.70;8.88;;;;;;;;;;10571068;28;20055;-72
2021/09/19 06:47:55;;;;;;;17.10;7.90;;;;;;;;;;10564199;28;20139;-71
2021/09/19 06:52:58;;;;;;;17.17;9.13;;;;;;;;;;10566230;28;20071;-74
2021/09/19 06:58:02;;;;;;;13.67;7.23;;;;;;;;;;10567210;28;20571;-77
2021/09/19 07:03:05;;;;;;;12.13;6.97;;;;;;;;;;10565869;28;20044;-74
2021/09/19 07:08:08;;;;;;;11.98;7.50;;;;;;;;;;10561601;28;20320;-75
2021/09/19 07:13:12;;;;;;;13.48;7.65;;;;;;;;;;10564036;28;20127;-75
2021/09/19 07:18:15;;;;;;;14.50;8.07;;;;;;;;;;10577282;28;20497;-75
2021/09/19 07:23:18;;;;;;;12.93;7.18;;;;;;;;;;10575861;28;20092;-76
2021/09/19 07:28:22;;;;;;;14.02;7.82;;;;;;;;;;10564721;28;20042;-75
2021/09/19 07:33:29;;;;;;;11.82;7.10;;;;;;;;;;10567669;28;20168;-71
2021/09/19 07:38:32;;;;;;;13.55;8.32;;;;;;;;;;10561341;28;20044;-71
2021/09/19 07:43:37;;;;;;;12.63;7.80;;;;;;;;;;10566976;28;20088;-72
2021/09/19 07:48:40;;;;;;;14.02;8.60;;;;;;;;;;10566753;28;20065;-70
2021/09/19 07:53:45;;;;;;;15.38;8.63;;;;;;;;;;10562547;28;20054;-71
2021/09/19 07:58:49;;;;;;;15.30;8.80;;;;;;;;;;10557694;28;20418;-70
2021/09/19 08:03:52;;;;;;;16.05;9.68;;;;;;;;;;10562222;28;20035;-71
2021/09/19 08:08:55;;;;;;;18.80;9.82;;;;;;;;;;10560235;28;20044;-71
2021/09/19 08:14:05;;;;;;;;;;;;;;;;;;10564735;28;20053;-71
2021/09/19 08:19:09;;;;;;;15.95;9.07;;;;;;;;;;10563886;28;20840;-71
2021/09/19 08:24:12;;;;;;;16.73;9.05;;;;;;;;;;10560759;28;20428;-72
2021/09/19 08:29:16;;;;;;;17.00;9.07;;;;;;;;;;10558631;28;20043;-71
2021/09/19 08:34:20;;;;;;;15.98;9.68;;;;;;;;;;10555289;28;20085;-72
2021/09/19 08:39:23;;;;;;;20.50;10.98;;;;;;;;;;10563531;28;20047;-72
2021/09/19 08:44:26;;;;;;;19.13;11.23;;;;;;;;;;10565308;28;20169;-72
2021/09/19 08:49:31;;;;;;;21.08;10.93;;;;;;;;;;10565209;28;20067;-72
2021/09/19 08:54:34;;;;;;;20.25;11.23;;;;;;;;;;10565144;28;20031;-72
2021/09/19 08:59:47;;;;;;;21.65;10.88;;;;;;;;;;10558105;28;20055;-73
2021/09/19 09:04:56;;;;;;;22.88;11.85;;;;;;;;;;10564011;28;20483;-72
2021/09/19 09:09:59;;;;;;;18.58;11.48;;;;;;;;;;10561602;28;20383;-71
2021/09/19 09:15:04;;;;;;;21.63;11.30;;;;;;;;;;10560961;28;20046;-72
2021/09/19 09:20:09;;;;;;;20.95;12.32;;;;;;;;;;10562853;28;20537;-71
2021/09/19 09:25:13;;;;;;;19.35;11.95;;;;;;;;;;10562782;28;20096;-72
2021/09/19 09:30:17;;;;;;;21.02;12.00;;;;;;;;;;10566003;28;20127;-72
2021/09/19 09:35:22;;;;;;;22.33;13.20;;;;;;;;;;10554186;28;20127;-71
2021/09/19 09:40:28;;;;;;;19.40;12.02;;;;;;;;;;10562696;28;20045;-71
2021/09/19 09:45:31;;;;;;;17.05;11.63;;;;;;;;;;10558824;28;20518;-71
2021/09/19 09:50:35;;;;;;;17.25;11.73;;;;;;;;;;10564856;28;20048;-70
2021/09/19 09:55:41;;;;;;;15.48;10.68;;;;;;;;;;10560806;28;20135;-74
2021/09/19 10:00:45;;;;;;;13.07;10.60;;;;;;;;;;10563490;28;20126;-71
2021/09/19 10:05:49;;;;;;;11.27;9.45;;;;;;;;;;10560869;28;20168;-70
2021/09/19 10:10:52;;;;;;;11.23;8.88;;;;;;;;;;10565189;28;20039;-74
2021/09/19 10:15:55;;;;;;;11.68;8.60;;;;;;;;;;10564101;28;20379;-76
2021/09/19 10:21:01;;;;;;;11.23;8.75;;;;;;;;;;10571212;27;21290;-71
2021/09/19 10:26:07;;;;;;;12.38;8.40;;;;;;;;;;10568747;28;20147;-71
2021/09/19 10:31:24;;;;;;;10.45;8.52;;;;;;;;;;10569078;28;20127;-71
2021/09/19 10:36:36;;;;;;;9.30;7.65;;;;;;;;;;10570755;28;20109;-71
2021/09/19 10:41:58;;;;;;;10.65;8.07;;;;;;;;;;10570342;28;20067;-70
2021/09/19 10:47:06;;;;;;;9.68;7.65;;;;;;;;;;10567573;28;20112;-71
2021/09/19 10:52:10;;;;;;;10.70;8.10;;;;;;;;;;10570243;28;20563;-71
2021/09/19 10:57:17;;;;;;;10.65;7.22;;;;;;;;;;10568933;28;20048;-71
2021/09/19 11:02:28;;;;;;;9.80;7.95;;;;;;;;;;10572265;28;20095;-71
2021/09/19 11:07:34;;;;;;;9.65;7.65;;;;;;;;;;10556739;28;20071;-71
2021/09/19 11:12:43;;;;;;;8.57;6.95;;;;;;;;;;10570112;28;20064;-71
2021/09/19 11:17:48;;;;;;;7.72;5.88;;;;;;;;;;10570950;28;20094;-73
2021/09/19 11:22:52;;;;;;;7.43;6.07;;;;;;;;;;10565665;28;20344;-72
2021/09/19 11:27:55;;;;;;;7.65;5.88;;;;;;;;;;10561650;28;20116;-71
2021/09/19 11:32:59;;;;;;;6.63;5.80;;;;;;;;;;10569356;28;20031;-72
2021/09/19 11:38:03;;;;;;;6.78;5.30;;;;;;;;;;10558762;28;20109;-72
2021/09/19 11:43:09;;;;;;;7.20;5.32;;;;;;;;;;10571109;28;20044;-72
2021/09/19 11:48:14;;;;;;;7.60;5.80;;;;;;;;;;10567678;28;20466;-71
2021/09/19 11:53:17;;;;;;;6.93;5.28;;;;;;;;;;10572874;28;20042;-71
2021/09/19 11:58:21;;;;;;;7.07;4.93;;;;;;;;;;10567149;28;20059;-72
2021/09/19 12:03:25;;;;;;;6.47;5.25;;;;;;;;;;10563734;28;20047;-72
2021/09/19 12:08:29;;;;;;;7.35;5.70;;;;;;;;;;10564872;28;20077;-71
2021/09/19 12:13:33;;;;;;;7.43;5.57;;;;;;;;;;10561768;28;20122;-72
2021/09/19 12:18:38;;;;;;;6.53;5.32;;;;;;;;;;10565491;28;20084;-71
2021/09/19 12:23:42;;;;;;;5.90;4.82;;;;;;;;;;10559090;28;20239;-72
2021/09/19 12:28:45;;;;;;;6.68;4.80;;;;;;;;;;10562344;28;20518;-72
2021/09/19 12:33:53;;;;;;;8.60;4.97;;;;;;;;;;10563457;28;20130;-71
2021/09/19 12:38:56;;;;;;;6.20;4.53;;;;;;;;;;10560529;28;20074;-71
2021/09/19 12:43:59;;;;;;;7.80;5.60;;;;;;;;;;10557756;28;20123;-71
2021/09/19 12:49:03;;;;;;;6.97;4.80;;;;;;;;;;10564581;28;20058;-70
2021/09/19 12:54:22;;;;;;;7.70;4.80;;;;;;;;;;10559834;28;20244;-68
2021/09/19 12:59:26;;;;;;;5.32;4.20;;;;;;;;;;10559774;28;20448;-70
2021/09/19 13:04:30;;;;;;;8.43;4.80;;;;;;;;;;10562657;28;20070;-70
2021/09/19 13:09:33;;;;;;;6.75;4.55;;;;;;;;;;10562705;28;20494;-71
2021/09/19 13:14:36;;;;;;;4.70;3.65;;;;;;;;;;10562484;28;20533;-71
2021/09/19 13:19:40;;;;;;;6.18;3.90;;;;;;;;;;10557889;28;20039;-70
2021/09/19 13:24:43;;;;;;;6.07;3.47;;;;;;;;;;10554445;28;20031;-70
2021/09/19 13:29:46;;;;;;;5.00;3.63;;;;;;;;;;10565166;28;20070;-71
2021/09/19 13:34:51;;;;;;;6.57;4.22;;;;;;;;;;10557690;28;20074;-70
2021/09/19 13:39:53;;;;;;;5.63;3.42;;;;;;;;;;10563194;28;20039;-72
2021/09/19 13:44:57;;;;;;;6.05;3.55;;;;;;;;;;10568728;28;20040;-70
2021/09/19 13:50:01;;;;;;;4.78;3.33;;;;;;;;;;10570389;28;20043;-71
2021/09/19 13:55:04;;;;;;;6.50;3.25;;;;;;;;;;10568592;28;20100;-71
2021/09/19 14:00:08;;;;;;;5.50;3.08;;;;;;;;;;10567992;28;20051;-71
2021/09/19 14:05:12;;;;;;;5.82;3.80;;;;;;;;;;10564811;28;20427;-71
2021/09/19 14:10:15;;;;;;;4.55;3.30;;;;;;;;;;10569950;28;20048;-69
2021/09/19 14:15:18;;;;;;;4.32;2.83;;;;;;;;;;10567628;28;20078;-70
2021/09/19 14:20:22;;;;;;;4.13;3.20;;;;;;;;;;10573134;28;20130;-72
2021/09/19 14:25:26;;;;;;;3.45;2.47;;;;;;;;;;10567885;28;20043;-71
2021/09/19 14:30:29;;;;;;;4.38;2.70;;;;;;;;;;10568864;28;20096;-71
2021/09/19 14:35:33;;;;;;;3.83;2.67;;;;;;;;;;10570392;28;20105;-70
2021/09/19 14:40:36;;;;;;;4.25;2.55;;;;;;;;;;10560751;28;20421;-71
2021/09/19 14:45:40;;;;;;;3.97;2.47;;;;;;;;;;10569654;28;20059;-71
2021/09/19 14:50:44;;;;;;;5.57;2.80;;;;;;;;;;10566252;28;20126;-70
2021/09/19 14:55:47;;;;;;;5.20;2.88;;;;;;;;;;10569574;28;20482;-71
2021/09/19 15:00:50;;;;;;;5.68;3.50;;;;;;;;;;10565284;28;20514;-72
2021/09/19 15:05:54;;;;;;;4.03;2.50;;;;;;;;;;10565794;28;20131;-70
2021/09/19 15:10:57;;;;;;;4.03;2.45;;;;;;;;;;10565991;28;20058;-71
2021/09/19 15:16:00;;;;;;;5.18;2.40;;;;;;;;;;10563861;28;20039;-71
2021/09/19 15:21:05;;;;;;;5.05;2.92;;;;;;;;;;10563298;28;20349;-71
2021/09/19 15:26:09;;;;;;;4.07;2.60;;;;;;;;;;10562783;27;20031;-72
2021/09/19 15:31:12;;;;;;;3.53;2.30;;;;;;;;;;10569874;27;20051;-72
2021/09/19 15:36:16;;;;;;;3.97;2.90;;;;;;;;;;10565428;28;20043;-70
2021/09/19 15:41:21;;;;;;;3.92;2.80;;;;;;;;;;10566780;28;20055;-71
2021/09/19 15:46:24;;;;;;;3.35;2.40;;;;;;;;;;10561549;28;20035;-71
2021/09/19 15:51:28;;;;;;;3.00;2.17;;;;;;;;;;10567227;28;20039;-73
2021/09/19 15:56:31;;;;;;;2.80;1.98;;;;;;;;;;10564239;28;20050;-73
2021/09/19 16:01:34;;;;;;;3.15;2.20;;;;;;;;;;10564691;28;20108;-72
2021/09/19 16:06:39;;;;;;;7.57;4.40;;;;;;;;;;10562678;28;20035;-72
2021/09/19 16:11:41;;;;;;;5.95;2.40;;;;;;;;;;10565554;28;20108;-69
2021/09/19 16:16:44;;;;;;;3.38;2.15;;;;;;;;;;10556530;28;20032;-71
2021/09/19 16:21:48;;;;;;;5.57;3.13;;;;;;;;;;10558104;28;20430;-71
2021/09/19 16:26:51;;;;;;;20.67;9.02;;;;;;;;;;10559395;28;20154;-71
2021/09/19 16:31:54;;;;;;;4.50;2.85;;;;;;;;;;10563539;28;20036;-71
2021/09/19 16:36:59;;;;;;;4.20;2.70;;;;;;;;;;10558684;28;20375;-69
2021/09/19 16:42:02;;;;;;;3.47;2.20;;;;;;;;;;10562724;28;20431;-71
2021/09/19 16:47:05;;;;;;;20.67;10.27;;;;;;;;;;10560108;28;20045;-72
2021/09/19 16:52:09;;;;;;;3.75;2.65;;;;;;;;;;10557994;28;20051;-73
2021/09/19 16:57:12;;;;;;;4.95;2.67;;;;;;;;;;10565442;28;20038;-73
2021/09/19 17:02:15;;;;;;;5.97;2.45;;;;;;;;;;10561471;28;20126;-71
2021/09/19 17:07:19;;;;;;;5.43;2.67;;;;;;;;;;10557768;28;20028;-72
2021/09/19 17:12:22;;;;;;;7.93;3.55;;;;;;;;;;10564755;28;20050;-70
2021/09/19 17:17:25;;;;;;;5.25;3.15;;;;;;;;;;10563257;28;20048;-71
2021/09/19 17:22:29;;;;;;;6.05;3.58;;;;;;;;;;10568710;28;20511;-72
2021/09/19 17:27:32;;;;;;;7.45;3.00;;;;;;;;;;10561162;28;20035;-71
2021/09/19 17:32:35;;;;;;;4.95;2.85;;;;;;;;;;10573814;27;20457;-72
2021/09/19 17:37:38;;;;;;;;;;;;;;;;;;10567643;27;20036;-73
2021/09/19 17:42:43;;;;;;;6.72;2.97;;;;;;;;;;10571034;27;19920;-71
2021/09/19 17:47:46;;;;;;;4.45;2.80;;;;;;;;;;10571045;27;21023;-73
2021/09/19 17:52:49;;;;;;;7.53;2.78;;;;;;;;;;10565988;28;20401;-73
2021/09/19 17:57:53;;;;;;;5.73;2.93;;;;;;;;;;10568932;28;20144;-72
2021/09/19 18:02:56;;;;;;;3.85;2.55;;;;;;;;;;10570196;28;20114;-72
2021/09/19 18:07:59;;;;;;;5.43;2.60;;;;;;;;;;10562636;27;20039;-72
2021/09/19 18:13:03;;;;;;;4.10;2.30;;;;;;;;;;10569920;27;20418;-72
2021/09/19 18:18:06;;;;;;;7.40;3.85;;;;;;;;;;10565232;28;20084;-70
2021/09/19 18:23:10;;;;;;;4.57;2.55;;;;;;;;;;10568641;28;20508;-73
2021/09/19 18:28:17;;;;;;;4.57;2.40;;;;;;;;;;10565886;28;20557;-72
2021/09/19 18:33:20;;;;;;;4.30;2.10;;;;;;;;;;10567518;28;20349;-72
2021/09/19 18:38:23;;;;;;;7.43;3.30;;;;;;;;;;10557460;28;20285;-72
2021/09/19 18:43:27;;;;;;;4.78;2.47;;;;;;;;;;10572037;28;20066;-72
2021/09/19 18:48:30;;;;;;;4.13;2.22;;;;;;;;;;10568624;28;20043;-72
2021/09/19 18:53:33;;;;;;;5.32;2.78;;;;;;;;;;10569295;28;20047;-72
2021/09/19 18:58:37;;;;;;;5.27;2.20;;;;;;;;;;10571427;28;20065;-71
2021/09/19 19:03:40;;;;;;;6.28;2.80;;;;;;;;;;10564118;28;20075;-71
2021/09/19 19:08:43;;;;;;;4.45;2.08;;;;;;;;;;10566505;28;20397;-73
2021/09/19 19:13:47;;;;;;;4.57;2.20;;;;;;;;;;10564776;28;20048;-73
2021/09/19 19:18:50;;;;;;;4.25;2.15;;;;;;;;;;10568656;28;20063;-73
2021/09/19 19:23:53;;;;;;;2.93;1.80;;;;;;;;;;10568037;28;20135;-72
2021/09/19 19:28:57;;;;;;;4.50;1.50;;;;;;;;;;10561657;28;20043;-75
2021/09/19 19:34:00;;;;;;;1.98;1.33;;;;;;;;;;10564063;28;20039;-73
2021/09/19 19:39:03;;;;;;;1.43;1.23;;;;;;;;;;10566160;28;20469;-71
2021/09/19 19:44:08;;;;;;;1.67;1.20;;;;;;;;;;10565350;28;20043;-72
2021/09/19 19:49:11;;;;;;;1.50;1.15;;;;;;;;;;10564596;28;20035;-70
2021/09/19 19:54:14;;;;;;;2.67;1.17;;;;;;;;;;10565939;28;20053;-69
2021/09/19 19:59:20;;;;;;;3.70;1.30;;;;;;;;;;10563036;28;20043;-72
2021/09/19 20:04:23;;;;;;;1.45;0.95;;;;;;;;;;10565117;28;20536;-70
2021/09/19 20:09:26;;;;;;;2.87;1.57;;;;;;;;;;10559375;28;20083;-70
2021/09/19 20:14:30;;;;;;;1.83;1.40;;;;;;;;;;10558960;28;20036;-71
2021/09/19 20:19:33;;;;;;;2.20;1.27;;;;;;;;;;10566707;28;20475;-72
2021/09/19 20:24:36;;;;;;;1.98;1.30;;;;;;;;;;10562337;28;20094;-72
2021/09/19 20:29:42;;;;;;;2.37;1.40;;;;;;;;;;10568247;28;20440;-73
2021/09/19 20:34:44;;;;;;;3.15;1.30;;;;;;;;;;10566982;28;20104;-72
2021/09/19 20:39:47;;;;;;;2.23;1.20;;;;;;;;;;10566367;28;20070;-72
2021/09/19 20:44:51;;;;;;;1.67;1.10;;;;;;;;;;10566232;28;20093;-72
2021/09/19 20:49:54;;;;;;;2.08;1.08;;;;;;;;;;10567262;28;20435;-71
2021/09/19 20:54:57;;;;;;;1.80;1.30;;;;;;;;;;10564825;28;20070;-72
2021/09/19 21:00:02;;;;;;;2.20;1.40;;;;;;;;;;10561812;28;20051;-71
2021/09/19 21:05:05;;;;;;;2.28;1.30;;;;;;;;;;10556797;28;20040;-68
2021/09/19 21:10:09;;;;;;;2.67;1.30;;;;;;;;;;10560909;28;20075;-71
2021/09/19 21:15:13;;;;;;;2.70;1.25;;;;;;;;;;10565476;28;20040;-73
2021/09/19 21:20:16;;;;;;;2.22;1.42;;;;;;;;;;10564000;28;20388;-73
2021/09/19 21:25:19;;;;;;;4.55;2.13;;;;;;;;;;10563594;28;20035;-73
2021/09/19 21:30:24;;;;;;;6.73;3.10;;;;;;;;;;10563442;28;20130;-71
2021/09/19 21:35:27;;;;;;;5.85;3.40;;;;;;;;;;10563871;28;20028;-73
2021/09/19 21:40:30;;;;;;;8.47;3.80;;;;;;;;;;10566325;28;20527;-72
2021/09/19 21:45:34;;;;;;;7.68;4.13;;;;;;;;;;10557382;28;20033;-71
2021/09/19 21:50:37;;;;;;;7.13;3.72;;;;;;;;;;10567047;28;20436;-72
2021/09/19 21:55:40;;;;;;;7.43;3.80;;;;;;;;;;10559476;28;20044;-72
2021/09/19 22:00:45;;;;;;;8.80;4.32;;;;;;;;;;10562497;28;20043;-70
2021/09/19 22:05:48;;;;;;;6.82;3.70;;;;;;;;;;10567805;28;20491;-71
2021/09/19 22:11:01;;;;;;;7.00;3.97;;;;;;;;;;10571758;28;20035;-71
2021/09/19 22:16:06;;;;;;;7.07;3.92;;;;;;;;;;10561606;28;20452;-72
2021/09/19 22:21:09;;;;;;;8.05;3.78;;;;;;;;;;10572209;28;20055;-71
2021/09/19 22:26:12;;;;;;;7.80;4.10;;;;;;;;;;10563155;28;20053;-71
2021/09/19 22:31:17;;;;;;;8.00;3.70;;;;;;;;;;10572401;28;20044;-71
2021/09/19 22:36:20;;;;;;;7.80;4.20;;;;;;;;;;10570749;28;20042;-71
2021/09/19 22:41:23;;;;;;;8.10;3.97;;;;;;;;;;10568337;28;20414;-72
2021/09/19 22:46:27;;;;;;;8.00;3.90;;;;;;;;;;10564993;28;20073;-72
2021/09/19 22:51:41;;;;;;;8.98;4.03;;;;;;;;;;10568635;28;20067;-71
2021/09/19 22:56:44;;;;;;;8.27;3.83;;;;;;;;;;10570724;28;20440;-71
2021/09/19 23:02:08;;;;;;;9.40;4.13;;;;;;;;;;10570676;28;20043;-71
2021/09/19 23:07:11;;;;;;;7.10;3.80;;;;;;;;;;10565628;28;20035;-70
2021/09/19 23:12:14;;;;;;;10.17;4.23;;;;;;;;;;10570943;28;20053;-71
2021/09/19 23:17:18;;;;;;;7.57;3.77;;;;;;;;;;10563453;28;20063;-71
2021/09/19 23:22:21;;;;;;;8.60;4.07;;;;;;;;;;10564551;28;20054;-71
2021/09/19 23:27:25;;;;;;;7.95;4.13;;;;;;;;;;10563719;28;20761;-71
2021/09/19 23:32:30;;;;;;;9.88;4.00;;;;;;;;;;10569648;28;20473;-71
2021/09/19 23:37:33;;;;;;;6.72;3.88;;;;;;;;;;10565192;28;20491;-72
2021/09/19 23:42:37;;;;;;;7.18;3.92;;;;;;;;;;10569907;28;20123;-70
2021/09/19 23:47:41;;;;;;;8.15;3.97;;;;;;;;;;10567791;28;20119;-71
2021/09/19 23:52:44;;;;;;;8.27;3.78;;;;;;;;;;10565627;28;20039;-71
2021/09/19 23:57:47;;;;;;;8.00;3.70;;;;;;;;;;10565554;28;20040;-70
